createdAt,value
2019-03-27T00:00:26.755Z,73.22
2019-03-27T00:01:26.740Z,73.12
2019-03-27T00:02:26.794Z,72.91
2019-03-27T00:04:35.478Z,73.12
2019-03-27T00:05:35.445Z,73.75
2019-03-27T00:06:35.442Z,74.18
2019-03-27T00:07:51.894Z,74.28
2019-03-27T00:08:35.440Z,74.07
2019-03-27T00:09:35.407Z,73.96
2019-03-27T00:10:35.389Z,73.65
2019-03-27T00:11:35.384Z,73.75
2019-03-27T00:12:51.313Z,73.65
2019-03-27T00:13:35.405Z,73.44
2019-03-27T00:14:35.354Z,73.86
2019-03-27T00:15:35.352Z,73.65
2019-03-27T00:16:35.331Z,73.65
2019-03-27T00:18:44.104Z,74.39
2019-03-27T00:19:44.053Z,74.28
2019-03-27T00:20:44.041Z,73.96
2019-03-27T00:21:44.035Z,73.33
2019-03-27T00:23:52.798Z,73.93
2019-03-27T00:24:52.736Z,74.35
2019-03-27T00:25:52.735Z,73.72
2019-03-27T00:26:52.737Z,73.65
2019-03-27T00:29:01.492Z,73.65
2019-03-27T00:30:01.430Z,73.96
2019-03-27T00:31:01.420Z,74.49
2019-03-27T00:32:10.223Z,73.79
2019-03-27T00:33:01.425Z,74.39
2019-03-27T00:34:01.401Z,74.07
2019-03-27T00:35:01.439Z,74.28
2019-03-27T00:36:01.404Z,73.86
2019-03-27T00:38:01.347Z,73.89
2019-03-27T00:39:01.347Z,74.28
2019-03-27T00:40:01.374Z,74.07
2019-03-27T00:41:01.345Z,74.39
2019-03-27T00:43:01.295Z,74.07
2019-03-27T00:44:01.283Z,73.75
2019-03-27T00:45:01.275Z,74.00
2019-03-27T00:46:01.302Z,73.44
2019-03-27T00:47:01.278Z,74.00
2019-03-27T00:48:01.282Z,74.07
2019-03-27T00:49:01.229Z,74.39
2019-03-27T00:50:01.227Z,74.74
2019-03-27T00:51:01.212Z,75.16
2019-03-27T00:52:01.350Z,75.16
2019-03-27T00:53:01.190Z,75.37
2019-03-27T00:54:01.216Z,75.48
2019-03-27T00:55:01.197Z,74.63
2019-03-27T00:56:01.158Z,74.63
2019-03-27T00:57:01.149Z,73.68
2019-03-27T00:58:01.145Z,73.89
2019-03-27T00:59:01.124Z,74.00
2019-03-27T01:00:01.159Z,73.79
2019-03-27T01:01:01.138Z,73.79
2019-03-27T01:02:01.100Z,74.28
2019-03-27T01:03:01.103Z,73.36
2019-03-27T01:04:01.078Z,74.52
2019-03-27T01:05:01.102Z,73.68
2019-03-27T01:06:01.054Z,73.79
2019-03-27T01:07:01.042Z,74.32
2019-03-27T01:08:01.091Z,74.10
2019-03-27T01:09:01.024Z,74.10
2019-03-27T01:10:01.035Z,73.68
2019-03-27T01:11:00.998Z,74.32
2019-03-27T01:12:00.989Z,74.18
2019-03-27T01:13:00.982Z,73.86
2019-03-27T01:14:01.049Z,74.10
2019-03-27T01:15:00.965Z,74.42
2019-03-27T01:16:00.951Z,74.28
2019-03-27T01:17:00.944Z,74.10
2019-03-27T01:18:00.925Z,73.86
2019-03-27T01:19:00.919Z,73.89
2019-03-27T01:20:00.951Z,74.32
2019-03-27T01:21:00.896Z,73.65
2019-03-27T01:22:00.888Z,73.96
2019-03-27T01:23:00.938Z,73.96
2019-03-27T01:24:00.867Z,73.57
2019-03-27T01:25:00.855Z,73.54
2019-03-27T01:26:00.855Z,73.86
2019-03-27T01:27:00.841Z,73.75
2019-03-27T01:28:00.830Z,74.28
2019-03-27T01:29:00.851Z,73.54
2019-03-27T01:30:00.806Z,73.68
2019-03-27T01:31:00.795Z,74.42
2019-03-27T01:32:00.836Z,74.00
2019-03-27T01:33:00.773Z,74.52
2019-03-27T01:34:00.773Z,74.56
2019-03-27T01:35:00.791Z,74.56
2019-03-27T01:36:00.818Z,75.27
2019-03-27T01:37:00.727Z,75.37
2019-03-27T01:38:00.719Z,74.52
2019-03-27T01:39:00.778Z,73.47
2019-03-27T01:40:00.699Z,74.42
2019-03-27T01:41:00.683Z,73.57
2019-03-27T01:42:00.672Z,74.00
2019-03-27T01:43:00.667Z,74.07
2019-03-27T01:44:00.699Z,74.28
2019-03-27T01:45:00.642Z,74.07
2019-03-27T01:46:00.633Z,73.86
2019-03-27T01:47:00.628Z,73.75
2019-03-27T01:48:00.624Z,73.75
2019-03-27T01:49:00.603Z,73.96
2019-03-27T01:50:00.629Z,74.35
2019-03-27T01:51:00.587Z,74.04
2019-03-27T01:52:00.573Z,74.46
2019-03-27T01:53:00.558Z,74.35
2019-03-27T01:55:09.633Z,73.72
2019-03-27T01:56:09.575Z,74.67
2019-03-27T01:57:09.561Z,74.25
2019-03-27T01:58:09.562Z,74.25
2019-03-27T01:59:09.596Z,73.93
2019-03-27T02:00:09.533Z,74.14
2019-03-27T02:01:09.554Z,73.72
2019-03-27T02:02:09.518Z,74.25
2019-03-27T02:03:09.534Z,74.04
2019-03-27T02:04:09.531Z,74.14
2019-03-27T02:05:09.487Z,74.14
2019-03-27T02:06:09.469Z,74.25
2019-03-27T02:07:09.465Z,74.04
2019-03-27T02:08:09.465Z,72.66
2019-03-27T02:09:09.436Z,72.17
2019-03-27T02:10:09.470Z,72.91
2019-03-27T02:11:09.423Z,72.66
2019-03-27T02:12:09.407Z,72.77
2019-03-27T02:13:09.394Z,72.77
2019-03-27T02:14:09.388Z,72.91
2019-03-27T02:15:09.388Z,73.12
2019-03-27T02:16:09.403Z,73.33
2019-03-27T02:17:09.354Z,73.12
2019-03-27T02:18:09.346Z,73.22
2019-03-27T02:19:09.332Z,74.14
2019-03-27T02:20:09.323Z,73.82
2019-03-27T02:21:09.314Z,74.35
2019-03-27T02:22:09.363Z,73.72
2019-03-27T02:23:09.295Z,73.82
2019-03-27T02:24:09.290Z,73.72
2019-03-27T02:25:09.274Z,73.69
2019-03-27T02:26:09.272Z,73.69
2019-03-27T02:27:09.253Z,73.51
2019-03-27T02:28:09.276Z,74.21
2019-03-27T02:29:09.248Z,73.90
2019-03-27T02:30:09.234Z,73.47
2019-03-27T02:31:09.210Z,72.95
2019-03-27T02:32:09.242Z,73.58
2019-03-27T02:33:09.189Z,72.95
2019-03-27T02:34:09.187Z,72.74
2019-03-27T02:35:09.166Z,71.78
2019-03-27T02:36:09.156Z,71.47
2019-03-27T02:37:09.172Z,71.75
2019-03-27T02:38:09.175Z,72.10
2019-03-27T02:39:09.126Z,72.17
2019-03-27T02:40:09.115Z,71.97
2019-03-27T02:41:09.103Z,71.86
2019-03-27T02:42:09.093Z,71.86
2019-03-27T02:43:09.097Z,72.00
2019-03-27T02:44:09.112Z,72.95
2019-03-27T02:45:09.084Z,72.74
2019-03-27T02:46:23.780Z,72.10
2019-03-27T02:47:10.048Z,71.47
2019-03-27T02:48:09.035Z,71.58
2019-03-27T02:49:09.041Z,72.00
2019-03-27T02:50:09.052Z,72.03
2019-03-27T02:51:09.002Z,71.92
2019-03-27T02:52:08.988Z,71.92
2019-03-27T02:54:17.739Z,72.52
2019-03-27T02:55:17.741Z,72.52
2019-03-27T02:56:17.689Z,73.16
2019-03-27T02:57:33.531Z,73.30
2019-03-27T02:58:17.685Z,73.16
2019-03-27T02:59:17.664Z,72.63
2019-03-27T03:00:17.651Z,71.89
2019-03-27T03:01:17.676Z,71.26
2019-03-27T03:03:26.373Z,71.78
2019-03-27T03:04:26.350Z,70.59
2019-03-27T03:05:26.341Z,70.17
2019-03-27T03:06:26.548Z,69.54
2019-03-27T03:08:36.070Z,70.06
2019-03-27T03:09:36.077Z,68.90
2019-03-27T03:10:36.036Z,68.80
2019-03-27T03:11:36.087Z,69.12
2019-03-27T03:13:44.764Z,68.87
2019-03-27T03:14:44.747Z,69.71
2019-03-27T03:15:44.728Z,69.40
2019-03-27T03:17:03.001Z,69.19
2019-03-27T03:17:44.726Z,69.51
2019-03-27T03:18:44.733Z,69.51
2019-03-27T03:19:44.690Z,69.32
2019-03-27T03:20:44.757Z,70.98
2019-03-27T03:22:11.013Z,71.01
2019-03-27T03:22:44.670Z,70.80
2019-03-27T03:23:44.652Z,69.99
2019-03-27T03:24:44.736Z,70.31
2019-03-27T03:25:44.635Z,69.99
2019-03-27T03:27:53.397Z,70.62
2019-03-27T03:28:53.376Z,69.78
2019-03-27T03:29:53.341Z,70.20
2019-03-27T03:32:02.096Z,69.89
2019-03-27T03:33:02.073Z,69.67
2019-03-27T03:34:02.109Z,69.36
2019-03-27T03:35:02.134Z,69.39
2019-03-27T03:37:10.811Z,69.25
2019-03-27T03:38:10.788Z,69.15
2019-03-27T03:39:10.815Z,69.57
2019-03-27T03:40:10.764Z,69.04
2019-03-27T03:42:19.522Z,69.60
2019-03-27T03:43:19.490Z,69.60
2019-03-27T03:44:19.521Z,69.71
2019-03-27T03:46:28.518Z,69.28
2019-03-27T03:47:28.489Z,69.07
2019-03-27T03:48:28.477Z,69.36
2019-03-27T03:49:28.511Z,70.34
2019-03-27T03:51:37.220Z,69.71
2019-03-27T03:52:37.197Z,68.65
2019-03-27T03:53:37.189Z,69.28
2019-03-27T03:54:37.248Z,68.19
2019-03-27T03:56:45.983Z,68.09
2019-03-27T03:57:45.953Z,67.99
2019-03-27T03:58:45.957Z,68.73
2019-03-27T03:59:45.964Z,68.93
2019-03-27T04:01:54.690Z,66.72
2019-03-27T04:02:54.660Z,66.93
2019-03-27T04:03:54.687Z,68.19
2019-03-27T04:06:03.404Z,69.36
2019-03-27T04:07:03.371Z,69.01
2019-03-27T04:08:03.357Z,67.03
2019-03-27T04:09:03.422Z,67.46
2019-03-27T04:10:31.155Z,66.72
2019-03-27T04:11:03.356Z,65.95
2019-03-27T04:12:03.331Z,65.98
2019-03-27T04:13:03.306Z,65.53
2019-03-27T04:14:03.294Z,65.56
2019-03-27T04:16:12.093Z,66.61
2019-03-27T04:17:17.323Z,65.77
2019-03-27T04:18:13.050Z,66.08
2019-03-27T04:19:12.042Z,65.63
2019-03-27T04:20:12.054Z,66.08
2019-03-27T04:21:12.076Z,66.16
2019-03-27T04:22:12.010Z,66.51
2019-03-27T04:23:11.998Z,66.51
2019-03-27T04:24:12.019Z,66.40
2019-03-27T04:25:12.031Z,66.51
2019-03-27T04:26:11.970Z,67.03
2019-03-27T04:27:11.952Z,66.72
2019-03-27T04:28:12.718Z,67.25
2019-03-27T04:29:36.245Z,67.35
2019-03-27T04:30:11.951Z,67.03
2019-03-27T04:31:11.910Z,67.03
2019-03-27T04:32:12.724Z,67.25
2019-03-27T04:33:11.889Z,68.09
2019-03-27T04:35:20.678Z,67.80
2019-03-27T04:36:20.616Z,68.76
2019-03-27T04:37:20.600Z,68.23
2019-03-27T04:38:20.621Z,67.91
2019-03-27T04:40:29.574Z,68.65
2019-03-27T04:41:29.326Z,69.28
2019-03-27T04:42:29.310Z,67.80
2019-03-27T04:43:29.297Z,68.02
2019-03-27T04:45:38.086Z,69.25
2019-03-27T04:46:38.015Z,69.28
2019-03-27T04:47:38.029Z,69.46
2019-03-27T04:49:13.806Z,69.46
2019-03-27T04:49:37.991Z,69.99
2019-03-27T04:50:37.985Z,69.99
2019-03-27T04:51:37.995Z,70.42
2019-03-27T04:52:37.950Z,70.34
2019-03-27T04:54:13.837Z,70.20
2019-03-27T04:54:37.931Z,69.49
2019-03-27T04:55:37.927Z,69.28
2019-03-27T04:56:37.907Z,69.60
2019-03-27T04:57:37.935Z,69.60
2019-03-27T04:59:14.902Z,70.42
2019-03-27T04:59:37.881Z,71.04
2019-03-27T05:00:37.865Z,70.94
2019-03-27T05:01:37.856Z,71.29
2019-03-27T05:02:37.844Z,71.61
2019-03-27T05:04:46.578Z,71.19
2019-03-27T05:05:46.564Z,70.87
2019-03-27T05:06:46.557Z,71.08
2019-03-27T05:07:46.528Z,70.45
2019-03-27T05:08:48.607Z,70.87
2019-03-27T05:09:46.511Z,71.08
2019-03-27T05:10:46.506Z,71.71
2019-03-27T05:11:46.523Z,71.71
2019-03-27T05:12:48.576Z,70.97
2019-03-27T05:13:46.476Z,70.76
2019-03-27T05:14:46.490Z,70.76
2019-03-27T05:15:46.450Z,70.65
2019-03-27T05:16:46.447Z,70.87
2019-03-27T05:18:07.463Z,70.87
2019-03-27T05:18:46.418Z,70.34
2019-03-27T05:19:46.413Z,70.76
2019-03-27T05:20:46.432Z,71.08
2019-03-27T05:21:46.385Z,69.92
2019-03-27T05:22:46.377Z,70.97
2019-03-27T05:23:46.378Z,71.39
2019-03-27T05:24:46.361Z,70.76
2019-03-27T05:25:46.340Z,71.19
2019-03-27T05:26:46.364Z,70.97
2019-03-27T05:27:46.323Z,70.55
2019-03-27T05:28:46.361Z,71.04
2019-03-27T05:29:46.300Z,71.68
2019-03-27T05:30:46.312Z,71.78
2019-03-27T05:31:46.280Z,71.47
2019-03-27T05:32:46.268Z,70.76
2019-03-27T05:33:46.258Z,71.08
2019-03-27T05:34:46.282Z,70.42
2019-03-27T05:35:46.233Z,70.10
2019-03-27T05:36:46.241Z,70.84
2019-03-27T05:37:46.224Z,71.15
2019-03-27T05:38:46.206Z,70.42
2019-03-27T05:39:46.200Z,71.26
2019-03-27T05:40:46.223Z,70.31
2019-03-27T05:41:46.176Z,70.42
2019-03-27T05:42:59.654Z,70.42
2019-03-27T05:43:47.151Z,70.20
2019-03-27T05:44:46.258Z,70.10
2019-03-27T05:45:46.129Z,69.85
2019-03-27T05:46:51.321Z,69.96
2019-03-27T05:47:58.838Z,70.17
2019-03-27T05:48:47.100Z,69.96
2019-03-27T05:49:46.085Z,70.17
2019-03-27T05:50:46.073Z,70.38
2019-03-27T05:52:54.830Z,69.96
2019-03-27T05:53:54.777Z,68.66
2019-03-27T05:54:54.773Z,68.80
2019-03-27T05:55:54.772Z,67.93
2019-03-27T05:56:54.787Z,67.93
2019-03-27T05:57:54.780Z,67.19
2019-03-27T05:58:54.766Z,67.40
2019-03-27T05:59:54.728Z,67.40
2019-03-27T06:00:54.711Z,67.36
2019-03-27T06:01:54.706Z,68.84
2019-03-27T06:02:54.742Z,69.61
2019-03-27T06:03:54.707Z,68.87
2019-03-27T06:04:54.666Z,68.77
2019-03-27T06:05:54.670Z,69.32
2019-03-27T06:06:54.647Z,69.43
2019-03-27T06:07:54.673Z,69.54
2019-03-27T06:08:54.627Z,70.06
2019-03-27T06:09:54.654Z,70.28
2019-03-27T06:10:54.703Z,69.12
2019-03-27T06:11:54.595Z,70.17
2019-03-27T06:12:54.624Z,69.32
2019-03-27T06:13:54.615Z,69.43
2019-03-27T06:14:54.569Z,68.90
2019-03-27T06:15:54.553Z,69.54
2019-03-27T06:16:54.543Z,69.82
2019-03-27T06:17:54.589Z,69.93
2019-03-27T06:18:54.518Z,68.55
2019-03-27T06:19:54.506Z,68.45
2019-03-27T06:20:54.508Z,68.77
2019-03-27T06:21:54.489Z,67.08
2019-03-27T06:22:54.482Z,66.84
2019-03-27T06:23:54.506Z,66.60
2019-03-27T06:24:54.452Z,65.00
2019-03-27T06:25:54.496Z,60.93
2019-03-27T06:26:54.435Z,60.45
2019-03-27T06:27:54.425Z,58.72
2019-03-27T06:28:54.414Z,58.43
2019-03-27T06:29:54.408Z,54.66
2019-03-27T06:30:54.395Z,55.47
2019-03-27T06:31:54.445Z,54.61
2019-03-27T06:32:54.421Z,54.32
2019-03-27T06:33:54.370Z,55.89
2019-03-27T06:34:54.349Z,54.74
2019-03-27T06:35:54.341Z,56.10
2019-03-27T06:36:54.327Z,54.63
2019-03-27T06:37:54.361Z,55.26
2019-03-27T06:38:54.319Z,55.89
2019-03-27T06:39:54.299Z,56.83
2019-03-27T06:40:54.305Z,58.90
2019-03-27T06:41:54.283Z,58.95
2019-03-27T06:42:54.266Z,58.09
2019-03-27T06:43:54.304Z,57.28
2019-03-27T06:44:54.245Z,56.02
2019-03-27T06:45:54.242Z,55.76
2019-03-27T06:46:54.254Z,54.82
2019-03-27T06:47:54.220Z,53.30
2019-03-27T06:48:54.200Z,53.72
2019-03-27T06:49:54.236Z,54.46
2019-03-27T06:50:54.181Z,54.58
2019-03-27T06:51:54.172Z,53.98
2019-03-27T06:52:54.194Z,52.59
2019-03-27T06:53:54.170Z,52.68
2019-03-27T06:54:54.138Z,54.06
2019-03-27T06:55:54.163Z,55.99
2019-03-27T06:56:54.120Z,56.04
2019-03-27T06:57:54.103Z,57.67
2019-03-27T06:58:55.123Z,58.45
2019-03-27T06:59:54.106Z,59.69
2019-03-27T07:00:54.081Z,58.40
2019-03-27T07:01:54.110Z,57.04
2019-03-27T07:02:54.072Z,56.81
2019-03-27T07:03:54.035Z,56.88
2019-03-27T07:04:54.032Z,56.26
2019-03-27T07:05:54.015Z,55.23
2019-03-27T07:06:54.013Z,56.30
2019-03-27T07:07:54.028Z,56.73
2019-03-27T07:08:54.003Z,56.54
2019-03-27T07:09:53.976Z,57.28
2019-03-27T07:10:53.967Z,57.88
2019-03-27T07:11:53.949Z,58.43
2019-03-27T07:12:53.963Z,58.64
2019-03-27T07:13:54.156Z,58.53
2019-03-27T07:14:53.923Z,59.69
2019-03-27T07:15:53.914Z,57.20
2019-03-27T07:16:53.905Z,56.20
2019-03-27T07:17:53.888Z,53.96
2019-03-27T07:18:53.870Z,54.11
2019-03-27T07:19:53.902Z,53.91
2019-03-27T07:20:53.851Z,54.11
2019-03-27T07:21:53.841Z,52.94
2019-03-27T07:22:53.833Z,52.39
2019-03-27T07:23:53.819Z,52.08
2019-03-27T07:24:53.807Z,51.59
2019-03-27T07:25:53.833Z,51.06
2019-03-27T07:26:53.798Z,53.65
2019-03-27T07:27:53.777Z,54.04
2019-03-27T07:28:53.810Z,52.06
2019-03-27T07:29:53.801Z,51.56
2019-03-27T07:30:53.784Z,53.20
2019-03-27T07:31:53.785Z,50.70
2019-03-27T07:32:53.730Z,51.95
2019-03-27T07:33:53.716Z,52.37
2019-03-27T07:34:53.721Z,52.26
2019-03-27T07:35:53.699Z,51.59
2019-03-27T07:36:56.107Z,52.69
2019-03-27T07:37:53.710Z,50.37
2019-03-27T07:38:53.666Z,51.72
2019-03-27T07:39:53.648Z,51.04
2019-03-27T07:40:53.634Z,51.09
2019-03-27T07:41:53.623Z,52.68
2019-03-27T07:42:53.616Z,53.09
2019-03-27T07:43:53.689Z,53.28
2019-03-27T07:44:53.609Z,52.92
2019-03-27T07:45:53.590Z,53.57
2019-03-27T07:46:53.576Z,51.59
2019-03-27T07:47:53.568Z,52.57
2019-03-27T07:48:54.434Z,53.72
2019-03-27T07:49:53.591Z,52.34
2019-03-27T07:50:53.538Z,52.59
2019-03-27T07:51:53.563Z,52.23
2019-03-27T07:52:53.520Z,54.63
2019-03-27T07:53:53.501Z,54.63
2019-03-27T07:54:53.487Z,54.45
2019-03-27T07:55:53.475Z,54.94
2019-03-27T07:56:53.480Z,53.88
2019-03-27T07:57:53.497Z,53.17
2019-03-27T07:58:53.472Z,51.48
2019-03-27T07:59:53.438Z,52.13
2019-03-27T08:00:53.430Z,52.63
2019-03-27T08:01:53.418Z,52.26
2019-03-27T08:02:53.416Z,50.49
2019-03-27T08:03:53.432Z,49.55
2019-03-27T08:04:53.411Z,48.07
2019-03-27T08:05:53.379Z,51.05
2019-03-27T08:06:53.365Z,49.18
2019-03-27T08:07:53.352Z,48.43
2019-03-27T08:08:53.348Z,48.34
2019-03-27T08:09:53.369Z,49.09
2019-03-27T08:10:53.332Z,48.88
2019-03-27T08:11:53.307Z,48.36
2019-03-27T08:12:53.302Z,50.63
2019-03-27T08:13:53.289Z,48.03
2019-03-27T08:14:53.278Z,49.07
2019-03-27T08:15:53.305Z,49.55
2019-03-27T08:16:53.269Z,49.33
2019-03-27T08:17:53.246Z,50.09
2019-03-27T08:19:06.602Z,48.24
2019-03-27T08:19:54.226Z,49.80
2019-03-27T08:20:53.229Z,47.92
2019-03-27T08:21:53.246Z,48.53
2019-03-27T08:22:53.207Z,49.18
2019-03-27T08:23:53.195Z,50.34
2019-03-27T08:24:53.170Z,50.09
2019-03-27T08:25:53.164Z,50.01
2019-03-27T08:26:53.169Z,49.19
2019-03-27T08:27:53.178Z,50.03
2019-03-27T08:28:53.135Z,47.80
2019-03-27T08:29:53.117Z,47.99
2019-03-27T08:30:53.105Z,47.88
2019-03-27T08:31:53.103Z,49.63
2019-03-27T08:32:53.097Z,48.98
2019-03-27T08:33:53.110Z,47.69
2019-03-27T08:34:53.105Z,47.24
2019-03-27T08:35:53.058Z,48.27
2019-03-27T08:36:53.050Z,48.30
2019-03-27T08:37:53.035Z,49.02
2019-03-27T08:38:53.024Z,47.67
2019-03-27T08:39:53.053Z,48.50
2019-03-27T08:40:53.002Z,48.30
2019-03-27T08:41:53.005Z,50.23
2019-03-27T08:42:52.989Z,48.05
2019-03-27T08:43:53.014Z,48.38
2019-03-27T08:44:52.971Z,49.27
2019-03-27T08:45:52.978Z,48.10
2019-03-27T08:46:52.946Z,46.59
2019-03-27T08:47:52.940Z,47.73
2019-03-27T08:48:52.953Z,46.28
2019-03-27T08:49:52.911Z,47.83
2019-03-27T08:50:52.910Z,46.94
2019-03-27T08:51:52.881Z,46.30
2019-03-27T08:52:52.878Z,44.07
2019-03-27T08:53:52.878Z,44.38
2019-03-27T08:54:52.882Z,46.42
2019-03-27T08:55:52.851Z,44.64
2019-03-27T08:56:52.833Z,45.47
2019-03-27T08:57:52.818Z,46.13
2019-03-27T08:58:52.819Z,45.88
2019-03-27T08:59:52.845Z,44.51
2019-03-27T09:00:52.795Z,46.40
2019-03-27T09:01:52.780Z,45.21
2019-03-27T09:02:52.766Z,45.53
2019-03-27T09:03:52.797Z,47.36
2019-03-27T09:04:52.743Z,47.25
2019-03-27T09:05:52.742Z,46.71
2019-03-27T09:06:52.729Z,46.00
2019-03-27T09:07:52.717Z,46.63
2019-03-27T09:08:52.696Z,45.72
2019-03-27T09:09:52.740Z,47.69
2019-03-27T09:10:52.692Z,46.23
2019-03-27T09:11:52.671Z,47.89
2019-03-27T09:12:52.662Z,46.23
2019-03-27T09:13:52.661Z,46.42
2019-03-27T09:14:52.634Z,47.73
2019-03-27T09:15:52.666Z,44.20
2019-03-27T09:16:52.625Z,46.80
2019-03-27T09:17:52.603Z,46.21
2019-03-27T09:18:52.596Z,48.27
2019-03-27T09:19:52.587Z,47.11
2019-03-27T09:20:52.573Z,46.80
2019-03-27T09:21:52.601Z,44.72
2019-03-27T09:22:52.550Z,46.28
2019-03-27T09:23:52.537Z,45.36
2019-03-27T09:24:52.545Z,47.75
2019-03-27T09:25:52.532Z,45.38
2019-03-27T09:26:52.504Z,44.74
2019-03-27T09:27:52.540Z,46.81
2019-03-27T09:28:52.526Z,48.04
2019-03-27T09:29:52.480Z,45.84
2019-03-27T09:30:52.472Z,45.73
2019-03-27T09:31:52.472Z,46.64
2019-03-27T09:32:52.456Z,45.59
2019-03-27T09:33:52.468Z,45.21
2019-03-27T09:34:52.429Z,46.23
2019-03-27T09:35:52.483Z,45.84
2019-03-27T09:36:52.405Z,45.61
2019-03-27T09:37:52.413Z,45.63
2019-03-27T09:38:52.382Z,45.26
2019-03-27T09:39:52.370Z,45.97
2019-03-27T09:40:52.362Z,45.42
2019-03-27T09:41:52.381Z,46.25
2019-03-27T09:42:52.341Z,43.45
2019-03-27T09:43:52.324Z,45.40
2019-03-27T09:44:52.332Z,44.49
2019-03-27T09:45:52.302Z,46.13
2019-03-27T09:46:52.289Z,45.51
2019-03-27T09:47:52.322Z,44.70
2019-03-27T09:48:52.271Z,45.72
2019-03-27T09:49:52.268Z,44.45
2019-03-27T09:50:52.262Z,44.45
2019-03-27T09:51:52.238Z,44.53
2019-03-27T09:52:52.229Z,43.31
2019-03-27T09:53:53.310Z,44.64
2019-03-27T09:54:52.206Z,45.72
2019-03-27T09:55:52.205Z,45.69
2019-03-27T09:56:52.185Z,44.45
2019-03-27T09:57:52.178Z,45.69
2019-03-27T09:58:52.163Z,45.40
2019-03-27T09:59:52.205Z,46.83
2019-03-27T10:00:52.145Z,44.45
2019-03-27T10:01:52.145Z,44.37
2019-03-27T10:02:52.134Z,46.54
2019-03-27T10:03:52.108Z,46.83
2019-03-27T10:04:52.103Z,46.58
2019-03-27T10:05:52.133Z,45.86
2019-03-27T10:06:52.077Z,44.89
2019-03-27T10:07:52.070Z,43.99
2019-03-27T10:08:52.107Z,45.34
2019-03-27T10:09:52.044Z,46.58
2019-03-27T10:10:52.045Z,46.12
2019-03-27T10:11:52.058Z,45.03
2019-03-27T10:12:52.038Z,44.20
2019-03-27T10:13:52.009Z,44.99
2019-03-27T10:14:52.011Z,44.28
2019-03-27T10:15:51.980Z,44.28
2019-03-27T10:16:51.976Z,44.28
2019-03-27T10:17:51.995Z,44.32
2019-03-27T10:18:51.952Z,45.48
2019-03-27T10:20:02.825Z,45.67
2019-03-27T10:20:52.972Z,46.75
2019-03-27T10:21:51.919Z,44.49
2019-03-27T10:22:51.904Z,43.49
2019-03-27T10:23:51.921Z,46.50
2019-03-27T10:24:51.889Z,44.20
2019-03-27T10:25:51.894Z,45.54
2019-03-27T10:26:51.898Z,44.26
2019-03-27T10:27:51.850Z,43.66
2019-03-27T10:28:51.855Z,44.08
2019-03-27T10:29:51.833Z,43.16
2019-03-27T10:30:51.845Z,43.49
2019-03-27T10:31:51.807Z,45.53
2019-03-27T10:32:51.834Z,43.37
2019-03-27T10:33:51.788Z,44.28
2019-03-27T10:34:51.782Z,42.83
2019-03-27T10:35:51.778Z,44.24
2019-03-27T10:36:51.766Z,45.59
2019-03-27T10:37:51.765Z,42.22
2019-03-27T10:38:51.775Z,41.10
2019-03-27T10:39:51.720Z,40.83
2019-03-27T10:40:51.732Z,41.86
2019-03-27T10:41:51.699Z,42.32
2019-03-27T10:42:51.689Z,41.47
2019-03-27T10:43:51.685Z,41.47
2019-03-27T10:44:51.714Z,44.35
2019-03-27T10:45:51.665Z,41.99
2019-03-27T10:46:51.649Z,42.18
2019-03-27T10:47:51.643Z,42.36
2019-03-27T10:48:53.091Z,44.51
2019-03-27T10:49:51.629Z,42.69
2019-03-27T10:50:51.644Z,45.54
2019-03-27T10:51:51.598Z,45.79
2019-03-27T10:52:51.585Z,40.72
2019-03-27T10:53:51.575Z,42.18
2019-03-27T10:54:51.562Z,43.27
2019-03-27T10:55:51.558Z,42.84
2019-03-27T10:56:51.592Z,43.05
2019-03-27T10:57:51.539Z,41.48
2019-03-27T10:58:51.518Z,42.93
2019-03-27T10:59:51.592Z,42.22
2019-03-27T11:00:51.523Z,42.55
2019-03-27T11:01:51.519Z,42.74
2019-03-27T11:02:51.527Z,43.79
2019-03-27T11:03:51.478Z,43.79
2019-03-27T11:04:51.456Z,43.19
2019-03-27T11:05:51.444Z,43.89
2019-03-27T11:06:51.436Z,43.87
2019-03-27T11:07:51.432Z,40.59
2019-03-27T11:08:51.470Z,42.32
2019-03-27T11:09:51.400Z,41.52
2019-03-27T11:10:51.488Z,42.32
2019-03-27T11:11:51.378Z,42.49
2019-03-27T11:12:51.429Z,40.73
2019-03-27T11:13:51.413Z,41.77
2019-03-27T11:14:51.360Z,42.82
2019-03-27T11:15:51.331Z,41.19
2019-03-27T11:16:51.322Z,42.44
2019-03-27T11:17:51.317Z,42.20
2019-03-27T11:18:51.365Z,42.29
2019-03-27T11:19:51.307Z,42.35
2019-03-27T11:20:51.305Z,44.04
2019-03-27T11:21:51.269Z,40.77
2019-03-27T11:22:51.262Z,43.69
2019-03-27T11:23:51.259Z,41.97
2019-03-27T11:24:51.291Z,43.13
2019-03-27T11:25:51.251Z,43.60
2019-03-27T11:26:51.224Z,44.10
2019-03-27T11:27:51.219Z,44.39
2019-03-27T11:28:51.206Z,44.12
2019-03-27T11:29:51.198Z,40.67
2019-03-27T11:30:51.217Z,43.52
2019-03-27T11:31:51.162Z,42.90
2019-03-27T11:32:51.153Z,41.75
2019-03-27T11:33:51.194Z,42.39
2019-03-27T11:34:51.125Z,42.14
2019-03-27T11:35:51.882Z,40.33
2019-03-27T11:36:51.159Z,43.77
2019-03-27T11:37:51.111Z,42.24
2019-03-27T11:38:51.089Z,43.91
2019-03-27T11:39:51.086Z,42.30
2019-03-27T11:40:51.062Z,42.99
2019-03-27T11:41:51.052Z,43.07
2019-03-27T11:42:51.073Z,43.71
2019-03-27T11:43:55.092Z,42.68
2019-03-27T11:44:51.077Z,43.01
2019-03-27T11:45:51.016Z,43.50
2019-03-27T11:46:51.015Z,43.11
2019-03-27T11:47:50.983Z,42.29
2019-03-27T11:48:50.979Z,44.16
2019-03-27T11:49:51.002Z,43.66
2019-03-27T11:50:50.952Z,44.89
2019-03-27T11:51:51.015Z,43.83
2019-03-27T11:52:50.943Z,44.66
2019-03-27T11:53:50.924Z,42.74
2019-03-27T11:54:51.952Z,44.43
2019-03-27T11:55:50.940Z,42.26
2019-03-27T11:56:50.894Z,44.47
2019-03-27T11:57:50.881Z,44.37
2019-03-27T11:58:50.870Z,45.48
2019-03-27T11:59:54.212Z,45.47
2019-03-27T12:00:54.741Z,45.28
2019-03-27T12:01:50.872Z,43.64
2019-03-27T12:02:50.834Z,44.16
2019-03-27T12:03:50.833Z,45.50
2019-03-27T12:04:50.805Z,45.40
2019-03-27T12:05:50.807Z,46.11
2019-03-27T12:06:50.786Z,44.47
2019-03-27T12:07:50.817Z,44.37
2019-03-27T12:08:51.103Z,44.18
2019-03-27T12:09:50.754Z,45.73
2019-03-27T12:10:50.744Z,44.26
2019-03-27T12:11:50.747Z,44.49
2019-03-27T12:12:50.728Z,46.33
2019-03-27T12:13:50.768Z,44.57
2019-03-27T12:14:50.702Z,44.38
2019-03-27T12:15:50.683Z,46.00
2019-03-27T12:16:50.684Z,45.61
2019-03-27T12:17:50.668Z,44.16
2019-03-27T12:18:50.657Z,45.61
2019-03-27T12:19:50.684Z,43.81
2019-03-27T12:20:58.974Z,45.44
2019-03-27T12:21:54.651Z,44.20
2019-03-27T12:22:57.538Z,44.22
2019-03-27T12:23:51.596Z,44.53
2019-03-27T12:24:50.591Z,44.45
2019-03-27T12:25:50.620Z,46.41
2019-03-27T12:26:50.563Z,44.47
2019-03-27T12:27:50.562Z,44.49
2019-03-27T12:28:50.551Z,44.20
2019-03-27T12:29:50.549Z,45.53
2019-03-27T12:30:50.533Z,44.37
2019-03-27T12:31:50.543Z,45.59
2019-03-27T12:32:50.522Z,45.69
2019-03-27T12:33:50.495Z,45.48
2019-03-27T12:34:50.489Z,43.21
2019-03-27T12:35:50.479Z,43.66
2019-03-27T12:36:50.497Z,45.65
2019-03-27T12:37:50.445Z,45.61
2019-03-27T12:38:50.437Z,45.61
2019-03-27T12:39:50.422Z,45.73
2019-03-27T12:40:50.430Z,45.44
2019-03-27T12:41:50.414Z,47.06
2019-03-27T12:42:50.446Z,45.59
2019-03-27T12:43:50.393Z,45.69
2019-03-27T12:44:50.408Z,45.28
2019-03-27T12:45:50.361Z,45.50
2019-03-27T12:46:51.906Z,46.44
2019-03-27T12:47:50.354Z,44.35
2019-03-27T12:48:50.328Z,44.56
2019-03-27T12:49:51.904Z,45.61
2019-03-27T12:50:50.349Z,45.69
2019-03-27T12:51:50.315Z,45.38
2019-03-27T12:52:50.307Z,44.26
2019-03-27T12:53:50.279Z,45.61
2019-03-27T12:54:50.271Z,45.59
2019-03-27T12:55:50.288Z,44.68
2019-03-27T12:56:50.254Z,46.12
2019-03-27T12:57:50.235Z,44.47
2019-03-27T12:58:50.257Z,45.84
2019-03-27T12:59:50.227Z,46.75
2019-03-27T13:00:57.295Z,46.72
2019-03-27T13:01:50.227Z,45.59
2019-03-27T13:02:50.189Z,44.45
2019-03-27T13:03:50.175Z,44.56
2019-03-27T13:04:50.205Z,46.51
2019-03-27T13:05:50.154Z,45.81
2019-03-27T13:06:50.171Z,44.26
2019-03-27T13:07:50.549Z,45.53
2019-03-27T13:08:50.112Z,46.66
2019-03-27T13:09:50.123Z,45.71
2019-03-27T13:10:50.101Z,45.81
2019-03-27T13:11:50.101Z,46.41
2019-03-27T13:12:50.125Z,45.59
2019-03-27T13:13:50.061Z,46.11
2019-03-27T13:14:50.608Z,46.51
2019-03-27T13:15:50.050Z,45.69
2019-03-27T13:16:52.302Z,46.41
2019-03-27T13:17:50.030Z,45.90
2019-03-27T13:18:50.135Z,45.79
2019-03-27T13:19:50.015Z,46.02
2019-03-27T13:20:49.992Z,44.37
2019-03-27T13:21:50.001Z,44.49